sensor_id;sensor_type;location;lat;lon;timestamp;pressure;altitude;pressure_sealevel;temperature;humidity
7990;BME280;4040;42.848;23.034;2022-10-03T00:02:38;94960.72;;;7.60;100.00
7990;BME280;4040;42.848;23.034;2022-10-03T00:08:53;94956.16;;;7.75;100.00
7990;BME280;4040;42.848;23.034;2022-10-03T00:14:53;94959.63;;;7.72;100.00
7990;BME280;4040;42.848;23.034;2022-10-03T00:21:01;94954.63;;;7.63;100.00
7990;BME280;4040;42.848;23.034;2022-10-03T00:26:58;94943.50;;;7.65;100.00
7990;BME280;4040;42.848;23.034;2022-10-03T00:33:03;94950.47;;;7.94;100.00
7990;BME280;4040;42.848;23.034;2022-10-03T00:39:09;94943.19;;;7.84;100.00
7990;BME280;4040;42.848;23.034;2022-10-03T00:45:28;94944.69;;;7.71;100.00
7990;BME280;4040;42.848;23.034;2022-10-03T00:51:27;94920.16;;;7.62;100.00
7990;BME280;4040;42.848;23.034;2022-10-03T00:57:47;94926.28;;;7.59;100.00
7990;BME280;4040;42.848;23.034;2022-10-03T01:03:45;94917.50;;;7.76;100.00
7990;BME280;4040;42.848;23.034;2022-10-03T01:09:49;94903.00;;;7.98;100.00
7990;BME280;4040;42.848;23.034;2022-10-03T01:15:50;94909.50;;;7.93;100.00
7990;BME280;4040;42.848;23.034;2022-10-03T01:21:43;94902.22;;;8.01;100.00
7990;BME280;4040;42.848;23.034;2022-10-03T01:27:42;94901.44;;;7.83;100.00
7990;BME280;4040;42.848;23.034;2022-10-03T01:33:53;94901.03;;;7.74;100.00
7990;BME280;4040;42.848;23.034;2022-10-03T01:39:49;94888.78;;;7.94;100.00
7990;BME280;4040;42.848;23.034;2022-10-03T01:45:53;94884.97;;;7.81;100.00
7990;BME280;4040;42.848;23.034;2022-10-03T01:51:57;94891.84;;;7.92;100.00
7990;BME280;4040;42.848;23.034;2022-10-03T01:57:52;94894.94;;;7.77;100.00
7990;BME280;4040;42.848;23.034;2022-10-03T02:03:49;94887.25;;;7.75;100.00
7990;BME280;4040;42.848;23.034;2022-10-03T02:09:49;94897.97;;;7.79;100.00
7990;BME280;4040;42.848;23.034;2022-10-03T02:15:50;94882.66;;;7.83;100.00
7990;BME280;4040;42.848;23.034;2022-10-03T02:21:46;94881.91;;;7.89;100.00
7990;BME280;4040;42.848;23.034;2022-10-03T02:28:06;94874.28;;;8.23;100.00
7990;BME280;4040;42.848;23.034;2022-10-03T02:50:35;94887.31;;;8.42;100.00
7990;BME280;4040;42.848;23.034;2022-10-03T03:03:36;94881.19;;;8.20;100.00
7990;BME280;4040;42.848;23.034;2022-10-03T03:22:36;94879.59;;;8.58;100.00
7990;BME280;4040;42.848;23.034;2022-10-03T03:28:38;94874.22;;;8.68;100.00
7990;BME280;4040;42.848;23.034;2022-10-03T03:34:43;94872.69;;;8.67;100.00
7990;BME280;4040;42.848;23.034;2022-10-03T03:40:45;94870.34;;;8.80;100.00
7990;BME280;4040;42.848;23.034;2022-10-03T03:46:48;94859.50;;;9.18;100.00
7990;BME280;4040;42.848;23.034;2022-10-03T03:52:49;94867.47;;;9.32;100.00
7990;BME280;4040;42.848;23.034;2022-10-03T03:58:50;94848.59;;;9.43;100.00
7990;BME280;4040;42.848;23.034;2022-10-03T04:08:43;94838.50;;;9.61;100.00
7990;BME280;4040;42.848;23.034;2022-10-03T04:21:04;94850.06;;;9.58;100.00
7990;BME280;4040;42.848;23.034;2022-10-03T04:27:11;94842.25;;;9.74;100.00
7990;BME280;4040;42.848;23.034;2022-10-03T04:33:11;94847.72;;;9.63;100.00
7990;BME280;4040;42.848;23.034;2022-10-03T04:39:08;94843.44;;;9.69;100.00
7990;BME280;4040;42.848;23.034;2022-10-03T04:45:09;94842.22;;;9.81;100.00
7990;BME280;4040;42.848;23.034;2022-10-03T04:51:06;94838.75;;;9.84;100.00
7990;BME280;4040;42.848;23.034;2022-10-03T04:57:01;94840.53;;;10.00;100.00
7990;BME280;4040;42.848;23.034;2022-10-03T05:03:02;94837.75;;;10.14;100.00
7990;BME280;4040;42.848;23.034;2022-10-03T05:08:58;94824.25;;;10.21;100.00
7990;BME280;4040;42.848;23.034;2022-10-03T05:15:12;94813.63;;;10.07;100.00
7990;BME280;4040;42.848;23.034;2022-10-03T05:21:10;94835.41;;;10.64;100.00
7990;BME280;4040;42.848;23.034;2022-10-03T05:27:12;94824.44;;;10.81;100.00
7990;BME280;4040;42.848;23.034;2022-10-03T05:33:08;94826.88;;;11.02;100.00
7990;BME280;4040;42.848;23.034;2022-10-03T05:39:32;94822.56;;;11.08;100.00
7990;BME280;4040;42.848;23.034;2022-10-03T05:45:27;94826.91;;;11.32;100.00
7990;BME280;4040;42.848;23.034;2022-10-03T05:51:40;94833.78;;;11.37;100.00
7990;BME280;4040;42.848;23.034;2022-10-03T06:04:35;94848.63;;;11.78;100.00
7990;BME280;4040;42.848;23.034;2022-10-03T06:10:49;94834.78;;;11.76;100.00
7990;BME280;4040;42.848;23.034;2022-10-03T06:16:50;94841.25;;;11.82;100.00
7990;BME280;4040;42.848;23.034;2022-10-03T06:23:12;94833.91;;;12.32;100.00
7990;BME280;4040;42.848;23.034;2022-10-03T06:29:29;94837.88;;;12.24;100.00
7990;BME280;4040;42.848;23.034;2022-10-03T06:36:01;94865.38;;;12.42;100.00
7990;BME280;4040;42.848;23.034;2022-10-03T06:42:25;94878.03;;;12.22;100.00
7990;BME280;4040;42.848;23.034;2022-10-03T06:48:38;94885.59;;;12.08;100.00
7990;BME280;4040;42.848;23.034;2022-10-03T07:01:17;94922.91;;;12.16;100.00
7990;BME280;4040;42.848;23.034;2022-10-03T07:25:03;94946.44;;;12.88;100.00
7990;BME280;4040;42.848;23.034;2022-10-03T07:31:03;94945.84;;;12.77;100.00
7990;BME280;4040;42.848;23.034;2022-10-03T07:37:19;94947.50;;;12.71;100.00
7990;BME280;4040;42.848;23.034;2022-10-03T07:43:52;94948.47;;;12.57;100.00
7990;BME280;4040;42.848;23.034;2022-10-03T07:50:14;94967.41;;;12.57;100.00
7990;BME280;4040;42.848;23.034;2022-10-03T07:56:25;94975.16;;;12.78;100.00
7990;BME280;4040;42.848;23.034;2022-10-03T08:02:42;94976.56;;;13.32;100.00
7990;BME280;4040;42.848;23.034;2022-10-03T08:09:02;94969.06;;;13.63;100.00
7990;BME280;4040;42.848;23.034;2022-10-03T08:14:57;94967.16;;;13.21;100.00
7990;BME280;4040;42.848;23.034;2022-10-03T08:20:54;94975.25;;;13.21;100.00
7990;BME280;4040;42.848;23.034;2022-10-03T08:27:02;94985.53;;;13.49;100.00
7990;BME280;4040;42.848;23.034;2022-10-03T08:33:06;94977.84;;;14.25;100.00
7990;BME280;4040;42.848;23.034;2022-10-03T08:39:39;94989.53;;;14.90;100.00
7990;BME280;4040;42.848;23.034;2022-10-03T08:45:58;94981.00;;;15.51;100.00
7990;BME280;4040;42.848;23.034;2022-10-03T08:52:19;94982.34;;;18.05;100.00
7990;BME280;4040;42.848;23.034;2022-10-03T08:58:42;94965.53;;;19.07;100.00
7990;BME280;4040;42.848;23.034;2022-10-03T09:15:34;94991.16;;;15.63;100.00
7990;BME280;4040;42.848;23.034;2022-10-03T09:34:24;94973.59;;;19.11;100.00
7990;BME280;4040;42.848;23.034;2022-10-03T09:47:11;94987.97;;;16.34;100.00
7990;BME280;4040;42.848;23.034;2022-10-03T09:53:41;94973.22;;;16.85;100.00
7990;BME280;4040;42.848;23.034;2022-10-03T10:00:08;94968.53;;;17.32;100.00
7990;BME280;4040;42.848;23.034;2022-10-03T10:06:18;94970.34;;;17.01;100.00
7990;BME280;4040;42.848;23.034;2022-10-03T10:16:26;94968.06;;;17.00;100.00
7990;BME280;4040;42.848;23.034;2022-10-03T10:22:52;94954.91;;;16.98;100.00
7990;BME280;4040;42.848;23.034;2022-10-03T10:42:10;94959.94;;;20.46;99.91
7990;BME280;4040;42.848;23.034;2022-10-03T10:48:40;94957.91;;;19.69;100.00
7990;BME280;4040;42.848;23.034;2022-10-03T10:55:11;94963.53;;;21.34;80.64
7990;BME280;4040;42.848;23.034;2022-10-03T11:01:29;94960.13;;;18.16;100.00
7990;BME280;4040;42.848;23.034;2022-10-03T11:14:26;94957.25;;;17.89;100.00
7990;BME280;4040;42.848;23.034;2022-10-03T11:39:44;94952.09;;;16.39;100.00
7990;BME280;4040;42.848;23.034;2022-10-03T11:45:41;94960.50;;;15.91;100.00
7990;BME280;4040;42.848;23.034;2022-10-03T11:51:42;94967.09;;;16.94;100.00
7990;BME280;4040;42.848;23.034;2022-10-03T11:57:34;94967.22;;;17.49;100.00
7990;BME280;4040;42.848;23.034;2022-10-03T12:03:27;94974.19;;;17.50;100.00
7990;BME280;4040;42.848;23.034;2022-10-03T12:09:29;94965.19;;;17.28;100.00
7990;BME280;4040;42.848;23.034;2022-10-03T12:19:14;94969.72;;;16.97;100.00
7990;BME280;4040;42.848;23.034;2022-10-03T12:25:20;94964.03;;;17.04;100.00
7990;BME280;4040;42.848;23.034;2022-10-03T12:31:13;94959.25;;;16.96;100.00
7990;BME280;4040;42.848;23.034;2022-10-03T12:37:41;94959.84;;;17.25;100.00
7990;BME280;4040;42.848;23.034;2022-10-03T12:43:48;94966.38;;;17.27;100.00
7990;BME280;4040;42.848;23.034;2022-10-03T12:49:49;94963.44;;;17.68;100.00
7990;BME280;4040;42.848;23.034;2022-10-03T12:55:46;94974.38;;;17.09;98.96
7990;BME280;4040;42.848;23.034;2022-10-03T13:02:03;94976.41;;;16.05;100.00
7990;BME280;4040;42.848;23.034;2022-10-03T13:08:02;94983.16;;;15.72;100.00
7990;BME280;4040;42.848;23.034;2022-10-03T13:14:04;94965.66;;;15.73;100.00
7990;BME280;4040;42.848;23.034;2022-10-03T13:19:59;94951.34;;;15.85;100.00
7990;BME280;4040;42.848;23.034;2022-10-03T13:25:54;94955.31;;;15.68;100.00
7990;BME280;4040;42.848;23.034;2022-10-03T13:32:03;94951.53;;;15.78;100.00
7990;BME280;4040;42.848;23.034;2022-10-03T13:38:11;94958.25;;;15.61;100.00
7990;BME280;4040;42.848;23.034;2022-10-03T13:44:06;94962.25;;;15.69;100.00
7990;BME280;4040;42.848;23.034;2022-10-03T13:50:00;94964.97;;;15.69;100.00
7990;BME280;4040;42.848;23.034;2022-10-03T13:55:52;94950.22;;;15.70;100.00
7990;BME280;4040;42.848;23.034;2022-10-03T14:01:50;94960.03;;;15.80;100.00
7990;BME280;4040;42.848;23.034;2022-10-03T14:07:52;94963.84;;;15.54;100.00
7990;BME280;4040;42.848;23.034;2022-10-03T14:13:59;94963.22;;;15.19;100.00
7990;BME280;4040;42.848;23.034;2022-10-03T14:20:06;94960.94;;;15.01;100.00
7990;BME280;4040;42.848;23.034;2022-10-03T14:26:03;95005.28;;;14.95;100.00
7990;BME280;4040;42.848;23.034;2022-10-03T14:31:58;94997.78;;;14.35;100.00
7990;BME280;4040;42.848;23.034;2022-10-03T14:37:55;94964.88;;;13.78;100.00
7990;BME280;4040;42.848;23.034;2022-10-03T14:43:49;94965.16;;;14.03;100.00
7990;BME280;4040;42.848;23.034;2022-10-03T14:49:45;94976.63;;;13.71;100.00
7990;BME280;4040;42.848;23.034;2022-10-03T14:55:42;94980.50;;;13.51;100.00
7990;BME280;4040;42.848;23.034;2022-10-03T15:01:34;94979.06;;;13.23;100.00
7990;BME280;4040;42.848;23.034;2022-10-03T15:07:32;94976.19;;;13.34;100.00
7990;BME280;4040;42.848;23.034;2022-10-03T15:13:24;94997.06;;;13.10;100.00
7990;BME280;4040;42.848;23.034;2022-10-03T15:19:18;94990.41;;;13.15;100.00
7990;BME280;4040;42.848;23.034;2022-10-03T15:25:12;94996.88;;;12.98;100.00
7990;BME280;4040;42.848;23.034;2022-10-03T15:31:08;94995.22;;;12.81;100.00
7990;BME280;4040;42.848;23.034;2022-10-03T15:37:05;95002.00;;;12.66;100.00
7990;BME280;4040;42.848;23.034;2022-10-03T15:43:03;94992.25;;;12.72;100.00
7990;BME280;4040;42.848;23.034;2022-10-03T15:48:56;95006.22;;;12.67;100.00
7990;BME280;4040;42.848;23.034;2022-10-03T15:54:51;95008.63;;;12.61;100.00
7990;BME280;4040;42.848;23.034;2022-10-03T16:00:41;95008.56;;;12.65;100.00
7990;BME280;4040;42.848;23.034;2022-10-03T16:06:38;95022.28;;;12.77;100.00
7990;BME280;4040;42.848;23.034;2022-10-03T16:12:50;95029.28;;;12.75;100.00
7990;BME280;4040;42.848;23.034;2022-10-03T16:18:49;95040.50;;;12.47;100.00
7990;BME280;4040;42.848;23.034;2022-10-03T16:24:48;95028.25;;;11.79;100.00
7990;BME280;4040;42.848;23.034;2022-10-03T16:30:41;95040.13;;;11.85;100.00
7990;BME280;4040;42.848;23.034;2022-10-03T16:36:39;95039.69;;;11.90;100.00
7990;BME280;4040;42.848;23.034;2022-10-03T16:42:38;95056.38;;;11.82;100.00
7990;BME280;4040;42.848;23.034;2022-10-03T16:48:32;95039.53;;;11.71;100.00
7990;BME280;4040;42.848;23.034;2022-10-03T16:54:38;95063.03;;;11.70;100.00
7990;BME280;4040;42.848;23.034;2022-10-03T17:00:33;95085.66;;;11.39;100.00
7990;BME280;4040;42.848;23.034;2022-10-03T17:06:29;95081.25;;;11.15;100.00
7990;BME280;4040;42.848;23.034;2022-10-03T17:12:24;95083.63;;;11.06;100.00
7990;BME280;4040;42.848;23.034;2022-10-03T17:22:20;95084.97;;;10.84;100.00
7990;BME280;4040;42.848;23.034;2022-10-03T17:28:14;95102.75;;;10.71;100.00
7990;BME280;4040;42.848;23.034;2022-10-03T17:34:11;95103.22;;;10.59;100.00
7990;BME280;4040;42.848;23.034;2022-10-03T17:40:15;95103.28;;;10.42;100.00
7990;BME280;4040;42.848;23.034;2022-10-03T17:46:13;95108.66;;;10.45;100.00
7990;BME280;4040;42.848;23.034;2022-10-03T17:52:12;95117.19;;;10.33;100.00
7990;BME280;4040;42.848;23.034;2022-10-03T17:58:05;95112.53;;;10.37;100.00
7990;BME280;4040;42.848;23.034;2022-10-03T18:03:56;95116.44;;;10.29;100.00
7990;BME280;4040;42.848;23.034;2022-10-03T18:09:49;95112.50;;;10.44;100.00
7990;BME280;4040;42.848;23.034;2022-10-03T18:15:52;95112.50;;;10.51;100.00
7990;BME280;4040;42.848;23.034;2022-10-03T18:21:59;95121.66;;;10.57;100.00
7990;BME280;4040;42.848;23.034;2022-10-03T18:28:06;95138.69;;;10.44;100.00
7990;BME280;4040;42.848;23.034;2022-10-03T18:34:02;95134.06;;;10.44;100.00
7990;BME280;4040;42.848;23.034;2022-10-03T18:39:57;95138.69;;;10.40;100.00
7990;BME280;4040;42.848;23.034;2022-10-03T18:45:48;95134.81;;;10.48;100.00
7990;BME280;4040;42.848;23.034;2022-10-03T18:51:51;95137.91;;;10.40;100.00
7990;BME280;4040;42.848;23.034;2022-10-03T18:57:46;95139.50;;;10.30;100.00
7990;BME280;4040;42.848;23.034;2022-10-03T19:03:41;95141.03;;;10.38;100.00
7990;BME280;4040;42.848;23.034;2022-10-03T19:09:38;95129.47;;;10.34;100.00
7990;BME280;4040;42.848;23.034;2022-10-03T19:15:39;95136.47;;;10.14;100.00
7990;BME280;4040;42.848;23.034;2022-10-03T19:18:18;95139.59;;;10.09;100.00
7990;BME280;4040;42.848;23.034;2022-10-03T19:24:12;95151.16;;;9.65;100.00
7990;BME280;4040;42.848;23.034;2022-10-03T19:30:05;95165.78;;;9.43;100.00
7990;BME280;4040;42.848;23.034;2022-10-03T19:35:57;95168.13;;;9.34;100.00
7990;BME280;4040;42.848;23.034;2022-10-03T19:41:52;95161.19;;;9.05;100.00
7990;BME280;4040;42.848;23.034;2022-10-03T19:47:49;95168.47;;;9.08;100.00
7990;BME280;4040;42.848;23.034;2022-10-03T19:53:40;95161.94;;;9.09;100.00
7990;BME280;4040;42.848;23.034;2022-10-03T19:59:43;95158.88;;;9.17;100.00
7990;BME280;4040;42.848;23.034;2022-10-03T20:05:38;95156.56;;;9.23;100.00
7990;BME280;4040;42.848;23.034;2022-10-03T20:11:38;95159.66;;;9.11;100.00
7990;BME280;4040;42.848;23.034;2022-10-03T20:17:29;95168.88;;;9.03;100.00
7990;BME280;4040;42.848;23.034;2022-10-03T20:23:21;95175.75;;;8.83;100.00
7990;BME280;4040;42.848;23.034;2022-10-03T20:29:20;95178.00;;;8.74;100.00
7990;BME280;4040;42.848;23.034;2022-10-03T20:35:12;95177.22;;;8.63;100.00
7990;BME280;4040;42.848;23.034;2022-10-03T20:41:06;95193.25;;;8.49;100.00
7990;BME280;4040;42.848;23.034;2022-10-03T20:47:00;95194.78;;;8.43;100.00
7990;BME280;4040;42.848;23.034;2022-10-03T20:52:56;95204.75;;;8.46;100.00
7990;BME280;4040;42.848;23.034;2022-10-03T20:58:50;95194.00;;;8.39;100.00
7990;BME280;4040;42.848;23.034;2022-10-03T21:04:50;95198.63;;;8.49;100.00
7990;BME280;4040;42.848;23.034;2022-10-03T21:10:44;95193.25;;;8.42;100.00
7990;BME280;4040;42.848;23.034;2022-10-03T21:16:43;95205.34;;;8.15;100.00
7990;BME280;4040;42.848;23.034;2022-10-03T21:22:34;95202.25;;;8.09;100.00
7990;BME280;4040;42.848;23.034;2022-10-03T21:28:26;95210.44;;;8.30;100.00
7990;BME280;4040;42.848;23.034;2022-10-03T21:34:24;95203.63;;;8.47;100.00
7990;BME280;4040;42.848;23.034;2022-10-03T21:40:23;95204.09;;;8.77;100.00
7990;BME280;4040;42.848;23.034;2022-10-03T21:46:20;95201.81;;;8.86;100.00
7990;BME280;4040;42.848;23.034;2022-10-03T21:52:43;95204.91;;;9.02;100.00
7990;BME280;4040;42.848;23.034;2022-10-03T21:58:53;95194.19;;;9.09;100.00
7990;BME280;4040;42.848;23.034;2022-10-03T22:08:32;95198.03;;;9.04;100.00
7990;BME280;4040;42.848;23.034;2022-10-03T22:14:30;95199.59;;;9.16;100.00
7990;BME280;4040;42.848;23.034;2022-10-03T22:20:24;95194.97;;;9.27;100.00
7990;BME280;4040;42.848;23.034;2022-10-03T22:26:21;95196.50;;;9.42;100.00
7990;BME280;4040;42.848;23.034;2022-10-03T22:32:17;95181.94;;;9.46;100.00
7990;BME280;4040;42.848;23.034;2022-10-03T22:38:10;95192.69;;;9.36;100.00
7990;BME280;4040;42.848;23.034;2022-10-03T22:44:00;95191.91;;;9.18;100.00
7990;BME280;4040;42.848;23.034;2022-10-03T22:49:55;95199.56;;;9.09;100.00
7990;BME280;4040;42.848;23.034;2022-10-03T22:55:48;95193.81;;;9.17;100.00
7990;BME280;4040;42.848;23.034;2022-10-03T23:01:46;95188.81;;;9.09;100.00
7990;BME280;4040;42.848;23.034;2022-10-03T23:08:03;95192.63;;;8.94;100.00
7990;BME280;4040;42.848;23.034;2022-10-03T23:13:57;95192.25;;;8.99;100.00
7990;BME280;4040;42.848;23.034;2022-10-03T23:19:58;95191.88;;;8.97;100.00
7990;BME280;4040;42.848;23.034;2022-10-03T23:25:59;95189.94;;;8.87;100.00
7990;BME280;4040;42.848;23.034;2022-10-03T23:32:00;95194.13;;;8.81;100.00
7990;BME280;4040;42.848;23.034;2022-10-03T23:37:50;95174.97;;;9.00;100.00
7990;BME280;4040;42.848;23.034;2022-10-03T23:43:47;95191.13;;;9.14;100.00
7990;BME280;4040;42.848;23.034;2022-10-03T23:49:37;95188.03;;;9.12;100.00
7990;BME280;4040;42.848;23.034;2022-10-03T23:55:30;95191.16;;;9.35;100.00
